Windhoek, Namibia
Current Conditions -  °F | °C
As of 8:00 AM on Monday 24 Nov 2014 (Local Time) from FYWE Reporting Station
Clear Clear  
Wind Chill: 73°   Ceiling: Unl
Heat Index: 73°   Visibility: 6mi
Dew Point: 19°   Wind: 5mph
Humidity: 13%   Direction: 260°W
Pressure: 30.21"   Gusts: NA
Location:  22.56°S, 17.09°E
Report Text: FYWE 240700Z 26004KT CAVOK 23/M07 Q1023
Loading
Personal Weather Stations






























Interactive Weather Map New forecast layout! Learn more

10-Day Weather Forecast

Advertisements
Track Severe Weather on mobile